This is the latest recevied weather packets stored in our database for station/object ENST. If no packets are shown the sender has not sent any weather packets the latest 1 day(s).
| Time | Temp. | Humidity | Pressure | Rain* | Wind** | Luminosity | Snow |
|---|---|---|---|---|---|---|---|
| 1778016786 | 3.89° C | 80% | 1003 hPa | - | 4.02 m/s, 310° | - | - |
| 1778014986 | 3.89° C | 86% | 1003 hPa | - | 4.47 m/s, 230° | - | - |
| 1778013186 | 3.89° C | 86% | 1003 hPa | - | 6.71 m/s, 230° | - | - |
| 1778011386 | 3.89° C | 86% | 1003 hPa | - | 5.36 m/s, 230° | - | - |
| 1778009586 | 2.78° C | 93% | 1003 hPa | - | 3.58 m/s, 200° | - | - |
| 1778007786 | 1.67° C | 10% | - | - | 4.47 m/s, 180° | - | - |
| 1778005986 | 0.56° C | 10% | - | - | 5.81 m/s, 180° | - | - |
| 1778004187 | 1.67° C | 93% | 1003 hPa | - | 8.94 m/s, 210° | - | - |
| 1778002387 | 0.56° C | 10% | - | - | 7.15 m/s, 210° | - | - |
| 1778000587 | 0.56° C | 10% | - | - | 8.05 m/s, 240° | - | - |
| 1777998787 | 2.78° C | 86% | 1003 hPa | - | 9.83 m/s, 230° | - | - |
| 1777996987 | 3.89° C | 80% | 1004 hPa | - | 6.71 m/s, 250° | - | - |
| 1777995187 | 2.78° C | 86% | 1004 hPa | - | 6.71 m/s, 210° | - | - |
| 1777993386 | 2.78° C | 80% | 1004 hPa | - | 9.39 m/s, 240° | - | - |
| 1777991587 | 3.89° C | 75% | 1003 hPa | - | 5.81 m/s, 250° | - | - |
| 1777989787 | 1.67° C | 86% | 1004 hPa | - | 8.94 m/s, 250° | - | - |
| 1777987987 | 5.56° C | 70% | 1003 hPa | - | 8.94 m/s, 230° | - | - |
| 1777986187 | 5.56° C | 70% | 1003 hPa | - | 8.94 m/s, 230° | - | - |
| 1777984386 | 5.56° C | 65% | 1003 hPa | - | 7.15 m/s, 240° | - | - |
| 1777982586 | 5° C | 75% | 1003 hPa | - | 5.81 m/s, 240° | - | - |
| 1777980787 | 5° C | 70% | 1003 hPa | - | 4.02 m/s, 190° | - | - |
| 1777978987 | 1.67° C | 86% | 1003 hPa | - | 2.68 m/s, 230° | - | - |
| 1777977186 | 3.89° C | 75% | 1003 hPa | - | 5.36 m/s, 250° | - | - |
* Rain since midnight (hover to see other rain measurements)
** Current wind speed in m/s (hover to see current wind gust speed)